• Join FlightAware (Why Join?)
  • Login
  • US Flag 
08:12PM EDT


 

Airport Tracker/Info


-or-


 

Live Flight TrackerFlight Track Log ✈ UAL4380 ✈ 18-May-2013 ✈ KRDU - KEWR

Flight Track Log - Related Links

Times and Time Zones

All times are in EDT time to prevent confusion due to time zone crossing. See the UAL4380 flight status page for this flight to view local times or setup timezone preferences in your user account.

Time Position Orientation Groundspeed Altitude Reporting Facility
EDT Latitude Longitude Course Direction KTS MPH feet Rate Location/Type
06:27AM 35.8686 -78.8114 15° North 179 206 1,100  Level Washington Center
06:28AM 35.8342 -78.8508 223° Southwest 179 206 3,200 2,340 Climbing Washington Center
06:30AM 36.1105 -78.6895 39° Northeast  Level FlightAware Approximate
06:30AM 35.8986 -78.9356 313° West 248 285 8,000  Level Washington Center
06:31AM 36.1911 -78.6586 19° North  Level FlightAware Approximate
06:31AM 35.9711 -78.8847 30° Northeast 231 266 10,100  Level Washington Center
06:32AM 36.2724 -78.6259 15° North  Level FlightAware Approximate
06:32AM 36.0517 -78.8342 27° Northeast 272 313 11,200  Level Washington Center
06:33AM 36.1389 -78.7736 29° Northeast 322 371 13,200 1,980 Climbing Washington Center
06:34AM 36.2428 -78.7056 28° Northeast 361 415 15,300 1,860 Climbing Washington Center
06:35AM 36.3256 -78.6522 27° Northeast 372 428 16,900 1,680 Climbing Washington Center
06:36AM 36.4211 -78.5939 26° Northeast 372 428 18,700 1,620 Climbing Washington Center
06:37AM 36.5242 -78.5567 16° North 372 428 20,300 1,740 Climbing Washington Center
06:38AM 36.6253 -78.5192 17° North 378 435 22,200 1,800 Climbing Washington Center
06:39AM 36.7242 -78.4786 18° North 373 429 23,900 1,740 Climbing Washington Center
06:40AM 36.8261 -78.4072 29° Northeast 368 423 25,800 1,560 Climbing Washington Center
06:41AM 36.9156 -78.3300 35° Northeast 374 430 27,000 600 Climbing Washington Center
06:42AM 37.0114 -78.2475 34° Northeast 397 457 27,000  Level Washington Center
06:43AM 37.1133 -78.1600 34° Northeast 424 488 27,000  Level Washington Center
06:44AM 37.2153 -78.0694 35° Northeast 435 501 27,000  Level Washington Center
06:45AM 37.3214 -77.9789 34° Northeast 447 514 27,000  Level Washington Center
06:46AM 37.4297 -77.8828 35° Northeast 460 529 27,000  Level Washington Center
06:47AM 37.5336 -77.7917 35° Northeast 460 529 27,000  Level Washington Center
06:48AM 37.6397 -77.6978 35° Northeast 460 529 27,000  Level Washington Center
06:49AM 37.7475 -77.6061 34° Northeast 460 529 27,000  Level Washington Center
06:50AM 37.8533 -77.5117 35° Northeast 460 529 27,000  Level Washington Center
06:51AM 37.9569 -77.4169 36° Northeast 460 529 27,000  Level Washington Center
06:52AM 38.0606 -77.3297 34° Northeast 453 521 27,000  Level Washington Center
06:53AM 38.1683 -77.2344 35° Northeast 458 527 27,000  Level Washington Center
06:54AM 38.2758 -77.1336 36° Northeast 463 533 27,000  Level Washington Center
06:55AM 38.3814 -77.0431 34° Northeast 463 533 27,000  Level Washington Center
06:56AM 38.4889 -76.9444 36° Northeast 463 533 27,000  Level Washington Center
06:57AM 38.5942 -76.8456 36° Northeast 463 533 27,000  Level Washington Center
06:58AM 38.6994 -76.7489 36° Northeast 463 533 27,000  Level Washington Center
06:59AM 38.8006 -76.6358 41° Northeast 463 533 27,000  Level Washington Center
07:00AM 38.8972 -76.5225 42° Northeast 463 533 27,000  Level Washington Center
07:01AM 38.9939 -76.4142 41° Northeast 463 533 27,000  Level Washington Center
07:02AM 39.0883 -76.3003 43° Northeast 463 533 27,000  Level Washington Center
07:03AM 39.1850 -76.1886 42° Northeast 463 533 27,000  Level Washington Center
07:04AM 39.2769 -76.0850 41° Northeast 470 541 27,000  Level Washington Center
07:05AM 39.3714 -75.9756 42° Northeast 464 534 27,000  Level Washington Center
07:06AM 39.4633 -75.8631 43° Northeast 458 527 27,000 -600 Level Washington Center
07:07AM 39.5592 -75.7503 42° Northeast 453 521 25,800 -1,800 Descending Washington Center
07:08AM 39.6553 -75.6400 41° Northeast 453 521 23,400 -2,400 Descending Washington Center
07:09AM 39.7447 -75.5294 44° Northeast 448 516 21,000 -2,400 Descending Washington Center
07:10AM 39.8342 -75.4239 42° Northeast 443 510 18,600 -2,280 Descending Washington Center
07:11AM 39.9175 -75.3236 43° Northeast 425 489 16,500 -2,280 Descending Washington Center
07:12AM 40.0047 -75.2150 44° Northeast 408 470 14,100 -2,220 Descending Washington Center
07:13AM 40.0772 -75.1253 43° Northeast 383 441 12,100 -1,380 Descending Washington Center
07:15AM 40.1833 -75.0000 42° Northeast 293 337 10,400 -1,200 Descending New York TRACON
07:16AM 40.2500 -74.9167 44° Northeast 289 333 9,000 -1,320 Descending New York TRACON
07:16AM 40.2833 -74.8500 57° Northeast 288 331 8,000 -840 Descending New York TRACON
07:18AM 40.3500 -74.7667 44° Northeast 285 328 7,400 -720 Descending New York TRACON
07:19AM 40.4000 -74.7000 45° Northeast 285 328 6,500 -720 Descending New York TRACON
07:20AM 40.4667 -74.6500 30° Northeast 263 303 6,000 -300 Descending New York TRACON
07:20AM 40.5333 -74.6500 360° North 259 298 6,000  Level New York TRACON
07:21AM 40.6000 -74.6167 21° North 262 302 6,000  Level New York TRACON
07:22AM 40.6667 -74.6000 11° North 267 307 6,000 -180 Level New York TRACON
07:23AM 40.7333 -74.5667 21° North 265 305 5,700 -540 Descending New York TRACON
07:24AM 40.8000 -74.5167 30° Northeast 270 311 5,000 -360 Descending New York TRACON
07:25AM 40.8667 -74.4833 21° North 236 272 5,000  Level New York TRACON
07:26AM 40.9333 -74.4333 30° Northeast 236 272 5,000  Level New York TRACON
07:27AM 40.9833 -74.4000 27° Northeast 236 272 5,000 -60 Level New York TRACON
07:28AM 41.0167 -74.3167 62° Northeast 239 275 4,900 -540 Descending New York TRACON
07:29AM 41.0333 -74.2500 72° East 216 249 4,000 -480 Descending New York TRACON
07:30AM 41.0167 -74.1833 108° East 198 228 4,000 -300 Level New York TRACON
07:31AM 40.9667 -74.1500 153° Southeast 187 215 3,500 -480 Descending New York TRACON
07:32AM 40.9333 -74.1167 143° Southeast 179 206 3,000 -300 Descending New York TRACON
07:33AM 40.8833 -74.0833 153° Southeast 179 206 3,000 -60 Level New York TRACON
07:34AM 40.8333 -74.0667 166° South 183 211 2,900 -360 Descending New York TRACON
07:36AM 40.7833 -74.0833 194° South 181 208 2,300 -660 Descending New York TRACON
07:37AM 40.7500 -74.0833 180° South 155 178 1,600 -720 Descending New York TRACON